sensor_id;sensor_type;location;lat;lon;timestamp;temperature;humidity
8709;DHT22;4391;48.678;9.280;2023-07-22T00:00:16;13.30;9.80
8709;DHT22;4391;48.678;9.280;2023-07-22T00:02:43;13.30;20.90
8709;DHT22;4391;48.678;9.280;2023-07-22T00:05:09;13.20;24.00
8709;DHT22;4391;48.678;9.280;2023-07-22T00:07:36;13.10;22.70
8709;DHT22;4391;48.678;9.280;2023-07-22T00:10:05;13.00;40.90
8709;DHT22;4391;48.678;9.280;2023-07-22T00:12:35;12.90;51.70
8709;DHT22;4391;48.678;9.280;2023-07-22T00:15:02;12.70;59.40
8709;DHT22;4391;48.678;9.280;2023-07-22T00:17:29;12.60;89.60
8709;DHT22;4391;48.678;9.280;2023-07-22T00:19:56;12.50;90.90
8709;DHT22;4391;48.678;9.280;2023-07-22T00:22:23;12.50;94.80
8709;DHT22;4391;48.678;9.280;2023-07-22T00:24:52;12.40;94.00
8709;DHT22;4391;48.678;9.280;2023-07-22T00:27:20;12.30;96.40
8709;DHT22;4391;48.678;9.280;2023-07-22T00:29:47;12.30;99.90
8709;DHT22;4391;48.678;9.280;2023-07-22T00:32:13;12.20;99.90
8709;DHT22;4391;48.678;9.280;2023-07-22T00:34:40;12.20;99.90
8709;DHT22;4391;48.678;9.280;2023-07-22T00:37:07;12.20;99.90
8709;DHT22;4391;48.678;9.280;2023-07-22T00:39:34;12.20;99.90
8709;DHT22;4391;48.678;9.280;2023-07-22T00:42:01;12.20;99.90
8709;DHT22;4391;48.678;9.280;2023-07-22T00:44:29;12.10;99.90
8709;DHT22;4391;48.678;9.280;2023-07-22T00:46:57;12.10;99.90
8709;DHT22;4391;48.678;9.280;2023-07-22T00:49:26;12.00;99.90
8709;DHT22;4391;48.678;9.280;2023-07-22T00:51:52;12.00;99.90
8709;DHT22;4391;48.678;9.280;2023-07-22T00:54:19;12.00;99.90
8709;DHT22;4391;48.678;9.280;2023-07-22T00:56:47;12.10;99.90
8709;DHT22;4391;48.678;9.280;2023-07-22T00:59:15;12.20;99.90
8709;DHT22;4391;48.678;9.280;2023-07-22T01:01:44;12.20;99.90
8709;DHT22;4391;48.678;9.280;2023-07-22T01:04:14;12.20;99.90
8709;DHT22;4391;48.678;9.280;2023-07-22T01:06:42;12.10;99.90
8709;DHT22;4391;48.678;9.280;2023-07-22T01:09:10;12.00;99.90
8709;DHT22;4391;48.678;9.280;2023-07-22T01:11:37;12.00;99.90
8709;DHT22;4391;48.678;9.280;2023-07-22T01:14:04;11.80;99.90
8709;DHT22;4391;48.678;9.280;2023-07-22T01:16:31;11.90;99.90
8709;DHT22;4391;48.678;9.280;2023-07-22T01:18:59;11.90;99.90
8709;DHT22;4391;48.678;9.280;2023-07-22T01:21:27;12.00;99.90
8709;DHT22;4391;48.678;9.280;2023-07-22T01:23:55;12.20;99.90
8709;DHT22;4391;48.678;9.280;2023-07-22T01:26:23;12.20;99.90
8709;DHT22;4391;48.678;9.280;2023-07-22T01:28:49;12.30;99.90
8709;DHT22;4391;48.678;9.280;2023-07-22T01:31:16;12.10;99.90
8709;DHT22;4391;48.678;9.280;2023-07-22T01:33:43;12.10;99.90
8709;DHT22;4391;48.678;9.280;2023-07-22T01:36:10;12.00;99.90
8709;DHT22;4391;48.678;9.280;2023-07-22T01:38:38;11.90;99.90
8709;DHT22;4391;48.678;9.280;2023-07-22T01:41:06;11.80;99.90
8709;DHT22;4391;48.678;9.280;2023-07-22T01:43:33;11.70;99.90
8709;DHT22;4391;48.678;9.280;2023-07-22T01:45:59;11.60;99.90
8709;DHT22;4391;48.678;9.280;2023-07-22T01:48:27;11.60;99.90
8709;DHT22;4391;48.678;9.280;2023-07-22T01:50:54;11.50;99.90
8709;DHT22;4391;48.678;9.280;2023-07-22T01:53:20;11.40;99.90
8709;DHT22;4391;48.678;9.280;2023-07-22T01:55:47;11.40;99.90
8709;DHT22;4391;48.678;9.280;2023-07-22T01:58:15;11.40;99.90
8709;DHT22;4391;48.678;9.280;2023-07-22T02:00:42;11.30;99.90
8709;DHT22;4391;48.678;9.280;2023-07-22T02:03:09;11.40;99.90
8709;DHT22;4391;48.678;9.280;2023-07-22T02:05:36;11.30;99.90
8709;DHT22;4391;48.678;9.280;2023-07-22T02:08:03;11.30;99.90
8709;DHT22;4391;48.678;9.280;2023-07-22T02:10:30;11.30;99.90
8709;DHT22;4391;48.678;9.280;2023-07-22T02:12:56;11.20;99.90
8709;DHT22;4391;48.678;9.280;2023-07-22T02:15:25;11.20;99.90
8709;DHT22;4391;48.678;9.280;2023-07-22T02:17:51;11.20;99.90
8709;DHT22;4391;48.678;9.280;2023-07-22T02:20:20;11.10;99.90
8709;DHT22;4391;48.678;9.280;2023-07-22T02:22:47;11.10;99.90
8709;DHT22;4391;48.678;9.280;2023-07-22T02:25:14;11.10;99.90
8709;DHT22;4391;48.678;9.280;2023-07-22T02:27:41;11.10;99.90
8709;DHT22;4391;48.678;9.280;2023-07-22T02:30:09;11.00;99.90
8709;DHT22;4391;48.678;9.280;2023-07-22T02:32:38;11.00;99.90
8709;DHT22;4391;48.678;9.280;2023-07-22T02:35:06;11.00;99.90
8709;DHT22;4391;48.678;9.280;2023-07-22T02:37:33;10.90;99.90
8709;DHT22;4391;48.678;9.280;2023-07-22T02:40:00;10.90;99.90
8709;DHT22;4391;48.678;9.280;2023-07-22T02:42:33;10.90;99.90
8709;DHT22;4391;48.678;9.280;2023-07-22T02:45:00;10.90;99.90
8709;DHT22;4391;48.678;9.280;2023-07-22T02:47:26;10.90;99.90
8709;DHT22;4391;48.678;9.280;2023-07-22T02:49:55;10.90;99.90
8709;DHT22;4391;48.678;9.280;2023-07-22T02:52:22;10.90;99.90
8709;DHT22;4391;48.678;9.280;2023-07-22T02:55:05;10.80;99.90
8709;DHT22;4391;48.678;9.280;2023-07-22T02:57:32;10.70;99.90
8709;DHT22;4391;48.678;9.280;2023-07-22T02:59:59;10.70;99.90
8709;DHT22;4391;48.678;9.280;2023-07-22T03:02:26;10.70;99.90
8709;DHT22;4391;48.678;9.280;2023-07-22T03:04:54;10.70;99.90
8709;DHT22;4391;48.678;9.280;2023-07-22T03:07:21;10.70;99.90
8709;DHT22;4391;48.678;9.280;2023-07-22T03:09:48;10.60;99.90
8709;DHT22;4391;48.678;9.280;2023-07-22T03:12:15;10.60;99.90
8709;DHT22;4391;48.678;9.280;2023-07-22T03:14:42;10.60;99.90
8709;DHT22;4391;48.678;9.280;2023-07-22T03:17:09;10.70;99.90
8709;DHT22;4391;48.678;9.280;2023-07-22T03:19:35;10.90;99.90
8709;DHT22;4391;48.678;9.280;2023-07-22T03:22:04;11.00;99.90
8709;DHT22;4391;48.678;9.280;2023-07-22T03:24:31;11.20;99.90
8709;DHT22;4391;48.678;9.280;2023-07-22T03:26:58;11.20;99.90
8709;DHT22;4391;48.678;9.280;2023-07-22T03:29:25;11.10;99.90
8709;DHT22;4391;48.678;9.280;2023-07-22T03:31:52;11.00;99.90
8709;DHT22;4391;48.678;9.280;2023-07-22T03:34:18;10.90;99.90
8709;DHT22;4391;48.678;9.280;2023-07-22T03:36:45;10.90;99.90
8709;DHT22;4391;48.678;9.280;2023-07-22T03:39:13;11.00;99.90
8709;DHT22;4391;48.678;9.280;2023-07-22T03:41:40;11.00;99.90
8709;DHT22;4391;48.678;9.280;2023-07-22T03:44:07;11.00;99.90
8709;DHT22;4391;48.678;9.280;2023-07-22T03:46:34;11.00;99.90
8709;DHT22;4391;48.678;9.280;2023-07-22T03:49:01;11.00;99.90
8709;DHT22;4391;48.678;9.280;2023-07-22T03:51:28;11.10;99.90
8709;DHT22;4391;48.678;9.280;2023-07-22T03:53:55;11.10;99.90
8709;DHT22;4391;48.678;9.280;2023-07-22T03:56:23;11.10;99.90
8709;DHT22;4391;48.678;9.280;2023-07-22T03:58:50;11.10;99.90
8709;DHT22;4391;48.678;9.280;2023-07-22T04:01:17;11.00;99.90
8709;DHT22;4391;48.678;9.280;2023-07-22T04:03:44;11.10;99.90
8709;DHT22;4391;48.678;9.280;2023-07-22T04:06:11;11.10;99.90
8709;DHT22;4391;48.678;9.280;2023-07-22T04:08:37;11.10;99.90
8709;DHT22;4391;48.678;9.280;2023-07-22T04:11:04;11.10;99.90
8709;DHT22;4391;48.678;9.280;2023-07-22T04:13:32;11.10;99.90
8709;DHT22;4391;48.678;9.280;2023-07-22T04:15:59;11.10;99.90
8709;DHT22;4391;48.678;9.280;2023-07-22T04:18:26;11.10;99.90
8709;DHT22;4391;48.678;9.280;2023-07-22T04:20:58;11.20;99.90
8709;DHT22;4391;48.678;9.280;2023-07-22T04:23:25;11.30;99.90
8709;DHT22;4391;48.678;9.280;2023-07-22T04:25:52;11.30;99.90
8709;DHT22;4391;48.678;9.280;2023-07-22T04:28:19;11.30;99.90
8709;DHT22;4391;48.678;9.280;2023-07-22T04:30:54;11.30;99.90
8709;DHT22;4391;48.678;9.280;2023-07-22T04:33:21;11.30;99.90
8709;DHT22;4391;48.678;9.280;2023-07-22T04:35:49;11.30;99.90
8709;DHT22;4391;48.678;9.280;2023-07-22T04:38:16;11.40;99.90
8709;DHT22;4391;48.678;9.280;2023-07-22T04:40:43;11.50;99.90
8709;DHT22;4391;48.678;9.280;2023-07-22T04:43:10;11.60;99.90
8709;DHT22;4391;48.678;9.280;2023-07-22T04:45:37;11.60;99.90
8709;DHT22;4391;48.678;9.280;2023-07-22T04:48:07;11.70;99.90
8709;DHT22;4391;48.678;9.280;2023-07-22T04:50:34;11.70;99.90
8709;DHT22;4391;48.678;9.280;2023-07-22T04:53:00;11.70;99.90
8709;DHT22;4391;48.678;9.280;2023-07-22T04:55:27;11.80;99.90
8709;DHT22;4391;48.678;9.280;2023-07-22T04:57:55;12.00;99.90
8709;DHT22;4391;48.678;9.280;2023-07-22T05:00:22;12.00;99.90
8709;DHT22;4391;48.678;9.280;2023-07-22T05:02:49;12.10;99.90
8709;DHT22;4391;48.678;9.280;2023-07-22T05:05:18;12.10;99.90
8709;DHT22;4391;48.678;9.280;2023-07-22T05:07:47;12.20;94.70
8709;DHT22;4391;48.678;9.280;2023-07-22T05:10:15;12.30;99.90
8709;DHT22;4391;48.678;9.280;2023-07-22T05:12:42;12.30;99.90
8709;DHT22;4391;48.678;9.280;2023-07-22T05:15:10;12.30;99.90
8709;DHT22;4391;48.678;9.280;2023-07-22T05:17:37;12.50;82.00
8709;DHT22;4391;48.678;9.280;2023-07-22T05:20:08;12.60;66.20
8709;DHT22;4391;48.678;9.280;2023-07-22T05:22:37;12.70;63.00
8709;DHT22;4391;48.678;9.280;2023-07-22T05:25:05;12.80;66.80
8709;DHT22;4391;48.678;9.280;2023-07-22T05:27:32;12.90;42.20
8709;DHT22;4391;48.678;9.280;2023-07-22T05:29:59;13.00;22.10
8709;DHT22;4391;48.678;9.280;2023-07-22T05:32:28;13.10;24.00
8709;DHT22;4391;48.678;9.280;2023-07-22T05:34:55;13.20;8.70
8709;DHT22;4391;48.678;9.280;2023-07-22T05:37:21;13.20;7.80
8709;DHT22;4391;48.678;9.280;2023-07-22T05:39:50;13.40;24.50
8709;DHT22;4391;48.678;9.280;2023-07-22T05:42:17;13.50;24.30
8709;DHT22;4391;48.678;9.280;2023-07-22T05:44:43;13.60;9.40
8709;DHT22;4391;48.678;9.280;2023-07-22T05:47:10;13.70;5.80
8709;DHT22;4391;48.678;9.280;2023-07-22T05:49:37;13.80;1.00
8709;DHT22;4391;48.678;9.280;2023-07-22T05:52:05;14.00;1.00
8709;DHT22;4391;48.678;9.280;2023-07-22T05:54:32;14.20;1.00
8709;DHT22;4391;48.678;9.280;2023-07-22T05:57:00;14.40;1.00
8709;DHT22;4391;48.678;9.280;2023-07-22T05:59:27;14.50;1.00
8709;DHT22;4391;48.678;9.280;2023-07-22T06:01:53;14.60;1.00
8709;DHT22;4391;48.678;9.280;2023-07-22T06:04:20;14.70;1.00
8709;DHT22;4391;48.678;9.280;2023-07-22T06:06:47;14.90;99.90
8709;DHT22;4391;48.678;9.280;2023-07-22T06:09:14;14.90;99.90
8709;DHT22;4391;48.678;9.280;2023-07-22T06:11:41;15.10;99.90
8709;DHT22;4391;48.678;9.280;2023-07-22T06:14:09;15.20;99.90
8709;DHT22;4391;48.678;9.280;2023-07-22T06:16:36;15.40;99.90
8709;DHT22;4391;48.678;9.280;2023-07-22T06:19:05;15.60;99.90
8709;DHT22;4391;48.678;9.280;2023-07-22T06:21:32;15.70;99.90
8709;DHT22;4391;48.678;9.280;2023-07-22T06:23:59;15.70;99.90
8709;DHT22;4391;48.678;9.280;2023-07-22T06:26:26;15.80;1.00
8709;DHT22;4391;48.678;9.280;2023-07-22T06:28:53;16.00;1.00
8709;DHT22;4391;48.678;9.280;2023-07-22T06:31:21;16.30;63.50
8709;DHT22;4391;48.678;9.280;2023-07-22T06:33:48;16.40;99.90
8709;DHT22;4391;48.678;9.280;2023-07-22T06:36:15;16.60;1.00
8709;DHT22;4391;48.678;9.280;2023-07-22T06:38:42;16.70;97.90
8709;DHT22;4391;48.678;9.280;2023-07-22T06:41:09;16.80;1.00
8709;DHT22;4391;48.678;9.280;2023-07-22T06:43:35;16.90;1.00
8709;DHT22;4391;48.678;9.280;2023-07-22T06:46:02;17.10;99.90
8709;DHT22;4391;48.678;9.280;2023-07-22T06:48:30;17.20;99.90
8709;DHT22;4391;48.678;9.280;2023-07-22T06:50:57;17.30;99.90
8709;DHT22;4391;48.678;9.280;2023-07-22T06:53:24;17.40;99.90
8709;DHT22;4391;48.678;9.280;2023-07-22T06:55:51;17.60;99.90
8709;DHT22;4391;48.678;9.280;2023-07-22T06:58:18;17.80;1.00
8709;DHT22;4391;48.678;9.280;2023-07-22T07:00:44;17.90;99.90
8709;DHT22;4391;48.678;9.280;2023-07-22T07:03:11;18.00;99.90
8709;DHT22;4391;48.678;9.280;2023-07-22T07:05:39;18.10;99.90
8709;DHT22;4391;48.678;9.280;2023-07-22T07:08:07;18.10;99.90
8709;DHT22;4391;48.678;9.280;2023-07-22T07:10:37;18.30;99.90
8709;DHT22;4391;48.678;9.280;2023-07-22T07:13:04;18.50;99.90
8709;DHT22;4391;48.678;9.280;2023-07-22T07:15:31;18.60;1.00
8709;DHT22;4391;48.678;9.280;2023-07-22T07:17:58;18.80;1.00
8709;DHT22;4391;48.678;9.280;2023-07-22T07:20:24;19.00;99.90
8709;DHT22;4391;48.678;9.280;2023-07-22T07:22:54;19.10;1.00
8709;DHT22;4391;48.678;9.280;2023-07-22T07:25:21;19.40;1.00
8709;DHT22;4391;48.678;9.280;2023-07-22T07:27:48;19.60;1.00
8709;DHT22;4391;48.678;9.280;2023-07-22T07:30:15;19.70;99.90
8709;DHT22;4391;48.678;9.280;2023-07-22T07:32:42;19.80;99.90
8709;DHT22;4391;48.678;9.280;2023-07-22T07:35:09;19.90;99.90
8709;DHT22;4391;48.678;9.280;2023-07-22T07:37:39;20.10;99.90
8709;DHT22;4391;48.678;9.280;2023-07-22T07:40:08;20.30;99.90
8709;DHT22;4391;48.678;9.280;2023-07-22T07:42:35;20.40;99.90
8709;DHT22;4391;48.678;9.280;2023-07-22T07:45:02;20.60;99.90
8709;DHT22;4391;48.678;9.280;2023-07-22T07:47:30;20.70;99.90
8709;DHT22;4391;48.678;9.280;2023-07-22T07:49:56;20.80;99.90
8709;DHT22;4391;48.678;9.280;2023-07-22T07:52:23;21.00;99.90
8709;DHT22;4391;48.678;9.280;2023-07-22T07:54:50;21.40;99.90
8709;DHT22;4391;48.678;9.280;2023-07-22T07:57:18;21.70;99.90
8709;DHT22;4391;48.678;9.280;2023-07-22T07:59:45;21.90;99.90
8709;DHT22;4391;48.678;9.280;2023-07-22T08:02:12;22.10;99.90
8709;DHT22;4391;48.678;9.280;2023-07-22T08:04:39;22.30;99.90
8709;DHT22;4391;48.678;9.280;2023-07-22T08:07:06;22.40;99.90
8709;DHT22;4391;48.678;9.280;2023-07-22T08:09:33;22.60;99.90
8709;DHT22;4391;48.678;9.280;2023-07-22T08:12:01;22.60;99.90
8709;DHT22;4391;48.678;9.280;2023-07-22T08:14:30;22.60;99.90
8709;DHT22;4391;48.678;9.280;2023-07-22T08:16:57;22.80;99.90
8709;DHT22;4391;48.678;9.280;2023-07-22T08:19:23;23.00;99.90
8709;DHT22;4391;48.678;9.280;2023-07-22T08:21:50;23.10;99.90
8709;DHT22;4391;48.678;9.280;2023-07-22T08:24:17;23.20;99.90
8709;DHT22;4391;48.678;9.280;2023-07-22T08:26:44;23.60;99.90
8709;DHT22;4391;48.678;9.280;2023-07-22T08:29:11;23.80;99.90
8709;DHT22;4391;48.678;9.280;2023-07-22T08:31:39;24.00;99.90
8709;DHT22;4391;48.678;9.280;2023-07-22T08:34:06;24.20;99.90
8709;DHT22;4391;48.678;9.280;2023-07-22T08:36:33;24.30;99.90
8709;DHT22;4391;48.678;9.280;2023-07-22T08:39:01;24.20;99.90
8709;DHT22;4391;48.678;9.280;2023-07-22T08:41:29;24.30;99.90
8709;DHT22;4391;48.678;9.280;2023-07-22T08:44:00;24.60;99.90
8709;DHT22;4391;48.678;9.280;2023-07-22T08:46:29;24.90;99.90
8709;DHT22;4391;48.678;9.280;2023-07-22T08:48:59;25.10;99.90
8709;DHT22;4391;48.678;9.280;2023-07-22T08:51:27;25.40;99.90
8709;DHT22;4391;48.678;9.280;2023-07-22T08:53:56;25.30;99.90
8709;DHT22;4391;48.678;9.280;2023-07-22T08:56:23;24.60;99.90
8709;DHT22;4391;48.678;9.280;2023-07-22T08:58:51;24.30;99.90
8709;DHT22;4391;48.678;9.280;2023-07-22T09:01:18;24.10;99.90
8709;DHT22;4391;48.678;9.280;2023-07-22T09:03:48;23.60;99.90
8709;DHT22;4391;48.678;9.280;2023-07-22T09:06:18;23.70;99.90
8709;DHT22;4391;48.678;9.280;2023-07-22T09:08:45;24.00;99.90
8709;DHT22;4391;48.678;9.280;2023-07-22T09:11:12;24.60;99.90
8709;DHT22;4391;48.678;9.280;2023-07-22T09:13:40;25.40;99.90
8709;DHT22;4391;48.678;9.280;2023-07-22T09:16:08;25.80;99.90
8709;DHT22;4391;48.678;9.280;2023-07-22T09:18:35;26.00;99.90
8709;DHT22;4391;48.678;9.280;2023-07-22T09:21:02;25.50;99.90
8709;DHT22;4391;48.678;9.280;2023-07-22T09:23:34;25.00;99.90
8709;DHT22;4391;48.678;9.280;2023-07-22T09:26:09;25.00;99.90
8709;DHT22;4391;48.678;9.280;2023-07-22T09:28:48;25.30;99.90
8709;DHT22;4391;48.678;9.280;2023-07-22T09:31:15;25.90;99.90
8709;DHT22;4391;48.678;9.280;2023-07-22T09:33:42;26.20;99.90
8709;DHT22;4391;48.678;9.280;2023-07-22T09:36:10;25.90;99.90
8709;DHT22;4391;48.678;9.280;2023-07-22T09:38:39;25.50;99.90
8709;DHT22;4391;48.678;9.280;2023-07-22T09:41:06;25.20;99.90
8709;DHT22;4391;48.678;9.280;2023-07-22T09:43:36;24.90;99.90
8709;DHT22;4391;48.678;9.280;2023-07-22T09:46:08;24.70;99.90
8709;DHT22;4391;48.678;9.280;2023-07-22T09:48:43;24.50;99.90
8709;DHT22;4391;48.678;9.280;2023-07-22T09:51:14;24.30;99.90
8709;DHT22;4391;48.678;9.280;2023-07-22T09:53:47;24.30;99.90
8709;DHT22;4391;48.678;9.280;2023-07-22T09:56:14;24.50;99.90
8709;DHT22;4391;48.678;9.280;2023-07-22T09:58:43;24.80;99.90
8709;DHT22;4391;48.678;9.280;2023-07-22T10:01:13;24.90;99.90
8709;DHT22;4391;48.678;9.280;2023-07-22T10:03:43;24.90;99.90
8709;DHT22;4391;48.678;9.280;2023-07-22T10:06:14;25.20;99.90
8709;DHT22;4391;48.678;9.280;2023-07-22T10:08:45;25.40;99.90
8709;DHT22;4391;48.678;9.280;2023-07-22T10:11:14;25.10;99.90
8709;DHT22;4391;48.678;9.280;2023-07-22T10:13:41;24.90;99.90
8709;DHT22;4391;48.678;9.280;2023-07-22T10:16:09;25.10;99.90
8709;DHT22;4391;48.678;9.280;2023-07-22T10:18:36;25.30;99.90
8709;DHT22;4391;48.678;9.280;2023-07-22T10:21:04;25.60;99.90
8709;DHT22;4391;48.678;9.280;2023-07-22T10:23:31;25.40;99.90
8709;DHT22;4391;48.678;9.280;2023-07-22T10:26:00;25.70;99.90
8709;DHT22;4391;48.678;9.280;2023-07-22T10:28:28;26.00;99.90
8709;DHT22;4391;48.678;9.280;2023-07-22T10:30:55;27.20;99.90
8709;DHT22;4391;48.678;9.280;2023-07-22T10:33:26;28.30;99.90
8709;DHT22;4391;48.678;9.280;2023-07-22T10:36:04;29.60;99.90
8709;DHT22;4391;48.678;9.280;2023-07-22T10:38:33;30.60;99.90
8709;DHT22;4391;48.678;9.280;2023-07-22T10:41:11;31.30;99.90
8709;DHT22;4391;48.678;9.280;2023-07-22T10:43:38;32.10;99.90
8709;DHT22;4391;48.678;9.280;2023-07-22T10:46:07;32.70;99.90
8709;DHT22;4391;48.678;9.280;2023-07-22T10:48:36;33.10;99.90
8709;DHT22;4391;48.678;9.280;2023-07-22T10:51:06;32.50;99.90
8709;DHT22;4391;48.678;9.280;2023-07-22T10:53:37;31.90;99.90
8709;DHT22;4391;48.678;9.280;2023-07-22T10:56:08;31.60;99.90
8709;DHT22;4391;48.678;9.280;2023-07-22T10:59:00;30.90;99.90
8709;DHT22;4391;48.678;9.280;2023-07-22T11:01:33;30.00;99.90
8709;DHT22;4391;48.678;9.280;2023-07-22T11:04:12;29.20;99.90
8709;DHT22;4391;48.678;9.280;2023-07-22T11:06:52;28.60;99.90
8709;DHT22;4391;48.678;9.280;2023-07-22T11:09:37;28.90;99.90
8709;DHT22;4391;48.678;9.280;2023-07-22T11:12:08;29.90;99.90
8709;DHT22;4391;48.678;9.280;2023-07-22T11:14:38;30.90;99.90
8709;DHT22;4391;48.678;9.280;2023-07-22T11:17:07;31.50;99.90
8709;DHT22;4391;48.678;9.280;2023-07-22T11:19:34;30.80;99.90
8709;DHT22;4391;48.678;9.280;2023-07-22T11:22:02;29.40;99.90
8709;DHT22;4391;48.678;9.280;2023-07-22T11:24:29;28.80;99.90
8709;DHT22;4391;48.678;9.280;2023-07-22T11:26:56;28.90;99.90
8709;DHT22;4391;48.678;9.280;2023-07-22T11:29:24;30.00;99.90
8709;DHT22;4391;48.678;9.280;2023-07-22T11:31:54;31.10;99.90
8709;DHT22;4391;48.678;9.280;2023-07-22T11:34:23;31.70;99.90
8709;DHT22;4391;48.678;9.280;2023-07-22T11:36:54;32.30;99.90
8709;DHT22;4391;48.678;9.280;2023-07-22T11:39:22;32.40;99.90
8709;DHT22;4391;48.678;9.280;2023-07-22T11:41:50;32.80;99.90
8709;DHT22;4391;48.678;9.280;2023-07-22T11:44:19;32.40;99.90
8709;DHT22;4391;48.678;9.280;2023-07-22T11:46:51;33.70;99.90
8709;DHT22;4391;48.678;9.280;2023-07-22T11:49:29;34.20;99.90
8709;DHT22;4391;48.678;9.280;2023-07-22T11:52:02;34.40;99.90
8709;DHT22;4391;48.678;9.280;2023-07-22T11:54:29;34.90;99.90
8709;DHT22;4391;48.678;9.280;2023-07-22T11:56:57;33.50;99.90
8709;DHT22;4391;48.678;9.280;2023-07-22T11:59:34;34.80;99.90
8709;DHT22;4391;48.678;9.280;2023-07-22T12:02:03;35.90;99.90
8709;DHT22;4391;48.678;9.280;2023-07-22T12:04:31;35.10;99.90
8709;DHT22;4391;48.678;9.280;2023-07-22T12:06:58;34.00;99.90
8709;DHT22;4391;48.678;9.280;2023-07-22T12:09:26;34.10;99.90
8709;DHT22;4391;48.678;9.280;2023-07-22T12:11:57;34.20;99.90
8709;DHT22;4391;48.678;9.280;2023-07-22T12:14:24;34.20;99.90
8709;DHT22;4391;48.678;9.280;2023-07-22T12:16:55;32.20;99.90
8709;DHT22;4391;48.678;9.280;2023-07-22T12:19:24;30.60;99.90
8709;DHT22;4391;48.678;9.280;2023-07-22T12:21:53;30.00;99.90
8709;DHT22;4391;48.678;9.280;2023-07-22T12:24:20;30.10;99.90
8709;DHT22;4391;48.678;9.280;2023-07-22T12:26:47;30.10;99.90
8709;DHT22;4391;48.678;9.280;2023-07-22T12:29:14;29.60;99.90
8709;DHT22;4391;48.678;9.280;2023-07-22T12:31:40;29.20;99.90
8709;DHT22;4391;48.678;9.280;2023-07-22T12:34:07;28.50;99.90
8709;DHT22;4391;48.678;9.280;2023-07-22T12:36:35;29.50;99.90
8709;DHT22;4391;48.678;9.280;2023-07-22T12:39:02;31.00;99.90
8709;DHT22;4391;48.678;9.280;2023-07-22T12:41:30;32.80;99.90
8709;DHT22;4391;48.678;9.280;2023-07-22T12:43:57;34.20;99.90
8709;DHT22;4391;48.678;9.280;2023-07-22T12:46:24;34.60;99.90
8709;DHT22;4391;48.678;9.280;2023-07-22T12:48:54;34.70;99.90
8709;DHT22;4391;48.678;9.280;2023-07-22T12:51:21;33.80;99.90
8709;DHT22;4391;48.678;9.280;2023-07-22T12:53:49;34.10;99.90
8709;DHT22;4391;48.678;9.280;2023-07-22T12:56:16;34.70;99.90
8709;DHT22;4391;48.678;9.280;2023-07-22T12:58:43;35.00;99.90
8709;DHT22;4391;48.678;9.280;2023-07-22T13:01:10;34.10;99.90
8709;DHT22;4391;48.678;9.280;2023-07-22T13:03:37;34.60;99.90
8709;DHT22;4391;48.678;9.280;2023-07-22T13:06:04;35.10;99.90
8709;DHT22;4391;48.678;9.280;2023-07-22T13:08:31;33.70;99.90
8709;DHT22;4391;48.678;9.280;2023-07-22T13:10:59;34.10;99.90
8709;DHT22;4391;48.678;9.280;2023-07-22T13:13:25;33.90;99.90
8709;DHT22;4391;48.678;9.280;2023-07-22T13:15:52;31.80;99.90
8709;DHT22;4391;48.678;9.280;2023-07-22T13:18:20;31.00;99.90
8709;DHT22;4391;48.678;9.280;2023-07-22T13:20:47;33.00;99.90
8709;DHT22;4391;48.678;9.280;2023-07-22T13:23:14;35.00;99.90
8709;DHT22;4391;48.678;9.280;2023-07-22T13:25:40;35.10;99.90
8709;DHT22;4391;48.678;9.280;2023-07-22T13:28:09;34.90;99.90
8709;DHT22;4391;48.678;9.280;2023-07-22T13:30:35;35.20;99.90
8709;DHT22;4391;48.678;9.280;2023-07-22T13:33:02;34.40;99.90
8709;DHT22;4391;48.678;9.280;2023-07-22T13:35:29;34.60;99.90
8709;DHT22;4391;48.678;9.280;2023-07-22T13:37:56;35.00;99.90
8709;DHT22;4391;48.678;9.280;2023-07-22T13:40:23;35.40;99.90
8709;DHT22;4391;48.678;9.280;2023-07-22T13:42:50;34.60;99.90
8709;DHT22;4391;48.678;9.280;2023-07-22T13:45:18;35.80;99.90
8709;DHT22;4391;48.678;9.280;2023-07-22T13:47:45;36.90;99.90
8709;DHT22;4391;48.678;9.280;2023-07-22T13:50:12;36.80;99.90
8709;DHT22;4391;48.678;9.280;2023-07-22T13:52:39;36.50;99.90
8709;DHT22;4391;48.678;9.280;2023-07-22T13:55:07;34.80;99.90
8709;DHT22;4391;48.678;9.280;2023-07-22T13:57:34;34.40;98.90
8709;DHT22;4391;48.678;9.280;2023-07-22T14:00:01;33.70;95.70
8709;DHT22;4391;48.678;9.280;2023-07-22T14:02:33;34.10;96.70
8709;DHT22;4391;48.678;9.280;2023-07-22T14:05:00;33.20;93.20
8709;DHT22;4391;48.678;9.280;2023-07-22T14:07:27;33.00;92.10
8709;DHT22;4391;48.678;9.280;2023-07-22T14:09:54;33.40;93.00
8709;DHT22;4391;48.678;9.280;2023-07-22T14:12:21;34.10;95.80
8709;DHT22;4391;48.678;9.280;2023-07-22T14:14:48;34.80;98.20
8709;DHT22;4391;48.678;9.280;2023-07-22T14:17:14;34.90;99.00
8709;DHT22;4391;48.678;9.280;2023-07-22T14:19:43;35.10;98.60
8709;DHT22;4391;48.678;9.280;2023-07-22T14:22:09;33.90;92.50
8709;DHT22;4391;48.678;9.280;2023-07-22T14:24:36;32.20;80.90
8709;DHT22;4391;48.678;9.280;2023-07-22T14:27:03;31.20;71.60
8709;DHT22;4391;48.678;9.280;2023-07-22T14:29:30;30.50;67.00
8709;DHT22;4391;48.678;9.280;2023-07-22T14:31:57;30.00;63.10
8709;DHT22;4391;48.678;9.280;2023-07-22T14:34:23;30.10;66.60
8709;DHT22;4391;48.678;9.280;2023-07-22T14:36:51;31.00;71.80
8709;DHT22;4391;48.678;9.280;2023-07-22T14:39:18;31.90;80.80
8709;DHT22;4391;48.678;9.280;2023-07-22T14:41:45;32.30;81.90
8709;DHT22;4391;48.678;9.280;2023-07-22T14:44:12;32.80;85.20
8709;DHT22;4391;48.678;9.280;2023-07-22T14:46:39;33.20;89.50
8709;DHT22;4391;48.678;9.280;2023-07-22T14:49:05;33.50;91.60
8709;DHT22;4391;48.678;9.280;2023-07-22T14:51:35;32.80;86.90
8709;DHT22;4391;48.678;9.280;2023-07-22T14:54:03;33.20;86.70
8709;DHT22;4391;48.678;9.280;2023-07-22T14:56:30;33.40;88.60
8709;DHT22;4391;48.678;9.280;2023-07-22T14:58:57;33.00;84.60
8709;DHT22;4391;48.678;9.280;2023-07-22T15:01:24;32.60;80.70
8709;DHT22;4391;48.678;9.280;2023-07-22T15:03:51;32.30;78.60
8709;DHT22;4391;48.678;9.280;2023-07-22T15:06:18;32.30;78.50
8709;DHT22;4391;48.678;9.280;2023-07-22T15:08:44;31.70;73.40
8709;DHT22;4391;48.678;9.280;2023-07-22T15:11:12;30.30;61.90
8709;DHT22;4391;48.678;9.280;2023-07-22T15:13:39;29.10;54.30
8709;DHT22;4391;48.678;9.280;2023-07-22T15:16:06;28.20;49.90
8709;DHT22;4391;48.678;9.280;2023-07-22T15:18:33;27.60;47.10
8709;DHT22;4391;48.678;9.280;2023-07-22T15:21:00;27.30;45.80
8709;DHT22;4391;48.678;9.280;2023-07-22T15:23:26;27.10;45.40
8709;DHT22;4391;48.678;9.280;2023-07-22T15:25:53;26.90;45.00
8709;DHT22;4391;48.678;9.280;2023-07-22T15:28:21;26.80;45.30
8709;DHT22;4391;48.678;9.280;2023-07-22T15:30:48;26.80;45.70
8709;DHT22;4391;48.678;9.280;2023-07-22T15:33:15;26.80;47.20
8709;DHT22;4391;48.678;9.280;2023-07-22T15:35:42;26.90;48.40
8709;DHT22;4391;48.678;9.280;2023-07-22T15:38:09;27.20;51.10
8709;DHT22;4391;48.678;9.280;2023-07-22T15:40:36;27.30;51.90
8709;DHT22;4391;48.678;9.280;2023-07-22T15:43:03;27.10;51.50
8709;DHT22;4391;48.678;9.280;2023-07-22T15:45:31;26.90;50.60
8709;DHT22;4391;48.678;9.280;2023-07-22T15:47:58;26.80;51.00
8709;DHT22;4391;48.678;9.280;2023-07-22T15:50:25;26.60;50.10
8709;DHT22;4391;48.678;9.280;2023-07-22T15:52:52;26.40;50.20
8709;DHT22;4391;48.678;9.280;2023-07-22T15:55:19;26.40;51.30
8709;DHT22;4391;48.678;9.280;2023-07-22T15:57:47;26.40;51.40
8709;DHT22;4391;48.678;9.280;2023-07-22T16:00:14;26.30;50.90
8709;DHT22;4391;48.678;9.280;2023-07-22T16:02:42;26.30;51.60
8709;DHT22;4391;48.678;9.280;2023-07-22T16:05:09;26.20;51.10